Time;durP1;ratioP1;P1;durP2;ratioP2;P2;SDS_P1;SDS_P2;PMS_P1;PMS_P2;Temp;Humidity;BMP_temperature;BMP_pressure;BME280_temperature;BME280_humidity;BME280_pressure;Samples;Min_cycle;Max_cycle;Signal;HPM_P1;HPM_P2
2022/04/19 00:00:25;;;;;;;0.30;0.10;;;7.40;96.20;;;;;;5005540;28;20517;-86
2022/04/19 00:02:52;;;;;;;0.30;0.10;;;7.40;96.30;;;;;;5008856;28;20504;-86
2022/04/19 00:05:19;;;;;;;0.30;0.20;;;7.30;97.70;;;;;;5007369;28;20497;-85
2022/04/19 00:07:46;;;;;;;0.30;0.20;;;7.20;97.90;;;;;;5002719;28;20502;-86
2022/04/19 00:10:13;;;;;;;0.30;0.20;;;7.20;98.00;;;;;;4999930;28;21519;-88
2022/04/19 00:12:42;;;;;;;0.80;0.50;;;7.30;97.50;;;;;;5003040;28;20469;-86
2022/04/19 00:15:11;;;;;;;0.30;0.10;;;7.20;97.10;;;;;;5005891;28;20462;-86
2022/04/19 00:17:38;;;;;;;0.30;0.20;;;7.10;97.20;;;;;;5005875;28;20485;-87
2022/04/19 00:20:06;;;;;;;0.30;0.20;;;7.10;97.30;;;;;;5002729;28;20490;-87
2022/04/19 00:22:33;;;;;;;0.30;0.17;;;7.10;97.30;;;;;;5002819;28;20471;-87
2022/04/19 00:25:00;;;;;;;0.30;0.17;;;7.10;97.80;;;;;;5007428;28;20509;-85
2022/04/19 00:27:27;;;;;;;0.30;0.20;;;7.00;97.70;;;;;;5006298;28;20988;-86
2022/04/19 00:29:54;;;;;;;0.40;0.20;;;7.00;97.70;;;;;;5006629;28;21028;-86
2022/04/19 00:32:23;;;;;;;0.30;0.10;;;7.00;97.80;;;;;;5006423;28;20472;-86
2022/04/19 00:34:51;;;;;;;0.30;0.10;;;7.00;97.70;;;;;;5007465;28;20462;-87
2022/04/19 00:37:19;;;;;;;0.30;0.10;;;7.00;97.70;;;;;;5004489;28;20465;-86
2022/04/19 00:39:46;;;;;;;0.30;0.20;;;7.00;97.90;;;;;;5006569;28;20820;-86
2022/04/19 00:42:13;;;;;;;0.30;0.17;;;7.00;98.40;;;;;;5005900;28;20565;-87
2022/04/19 00:44:41;;;;;;;0.30;0.20;;;7.00;98.40;;;;;;5003794;28;20458;-86
2022/04/19 00:47:09;;;;;;;0.30;0.20;;;7.10;98.00;;;;;;5005792;28;20462;-87
2022/04/19 00:49:40;;;;;;;0.30;0.20;;;7.10;97.50;;;;;;5004268;28;20505;-86
2022/04/19 00:52:08;;;;;;;0.30;0.20;;;7.10;97.20;;;;;;5005120;28;20430;-86
2022/04/19 00:54:35;;;;;;;0.60;0.30;;;7.20;97.20;;;;;;5004181;28;20462;-85
2022/04/19 00:57:03;;;;;;;2.60;0.50;;;7.20;97.10;;;;;;5002628;28;20463;-87
2022/04/19 00:59:31;;;;;;;0.30;0.20;;;7.20;96.70;;;;;;5004577;28;20977;-86
2022/04/19 01:01:58;;;;;;;0.40;0.30;;;7.30;96.30;;;;;;5005231;28;20438;-86
2022/04/19 01:04:25;;;;;;;0.40;0.33;;;7.30;96.30;;;;;;5003504;28;20466;-87
2022/04/19 01:06:54;;;;;;;0.30;0.20;;;7.30;96.10;;;;;;5005843;28;21013;-87
2022/04/19 01:09:22;;;;;;;0.30;0.20;;;7.30;96.00;;;;;;5003254;28;20481;-87
2022/04/19 01:14:36;;;;;;;0.40;0.30;;;7.30;96.30;;;;;;4998971;28;20530;-86
2022/04/19 01:17:04;;;;;;;0.30;0.20;;;7.30;96.40;;;;;;5003177;28;20959;-84
2022/04/19 01:19:32;;;;;;;0.40;0.40;;;7.30;96.30;;;;;;5006392;28;20540;-83
2022/04/19 01:22:01;;;;;;;0.30;0.10;;;7.30;96.60;;;;;;5000588;28;20490;-83
2022/04/19 01:24:28;;;;;;;0.30;0.10;;;7.30;97.00;;;;;;5005917;28;20476;-86
2022/04/19 01:26:56;;;;;;;0.47;0.43;;;7.30;96.50;;;;;;5000510;28;20513;-86
2022/04/19 01:29:23;;;;;;;0.30;0.10;;;7.20;96.70;;;;;;5005216;28;20500;-86
2022/04/19 01:31:52;;;;;;;0.30;0.13;;;7.20;96.80;;;;;;5003952;28;20540;-86
2022/04/19 01:34:19;;;;;;;0.30;0.20;;;7.20;97.50;;;;;;5006789;28;20960;-86
2022/04/19 01:36:46;;;;;;;0.30;0.20;;;7.10;98.20;;;;;;5003818;28;20490;-86
2022/04/19 01:39:15;;;;;;;0.90;0.47;;;7.00;97.80;;;;;;4997451;28;20470;-86
2022/04/19 01:41:42;;;;;;;0.30;0.20;;;7.00;98.10;;;;;;5003743;28;20464;-86
2022/04/19 01:44:09;;;;;;;0.30;0.20;;;7.00;98.70;;;;;;5006440;28;20501;-86
2022/04/19 01:46:37;;;;;;;0.30;0.20;;;7.00;97.80;;;;;;5004140;28;20988;-87
2022/04/19 01:49:04;;;;;;;0.30;0.20;;;7.10;96.60;;;;;;5002525;28;21007;-86
2022/04/19 01:51:31;;;;;;;0.30;0.20;;;7.20;97.20;;;;;;5003891;28;21024;-86
2022/04/19 01:53:58;;;;;;;0.40;0.30;;;7.20;97.20;;;;;;5011010;28;20474;-86
2022/04/19 01:56:27;;;;;;;0.30;0.10;;;7.10;98.30;;;;;;5010082;28;22023;-86
2022/04/19 01:58:54;;;;;;;0.30;0.20;;;7.10;97.50;;;;;;5023574;28;20500;-88
2022/04/19 02:01:21;;;;;;;0.40;0.20;;;7.20;97.00;;;;;;5023854;28;20841;-86
2022/04/19 02:03:48;;;;;;;0.50;0.47;;;7.20;97.70;;;;;;5010510;28;20497;-87
2022/04/19 02:06:16;;;;;;;0.30;0.20;;;7.10;99.10;;;;;;5004993;28;20520;-88
2022/04/19 02:08:43;;;;;;;0.30;0.10;;;7.00;99.10;;;;;;5007703;28;20605;-86
2022/04/19 02:11:10;;;;;;;0.30;0.10;;;7.00;98.70;;;;;;5003538;28;20520;-86
2022/04/19 02:13:38;;;;;;;0.30;0.10;;;7.10;98.20;;;;;;5005068;28;20874;-86
2022/04/19 02:16:06;;;;;;;0.30;0.17;;;7.10;97.90;;;;;;5008341;28;20521;-86
2022/04/19 02:18:33;;;;;;;0.30;0.20;;;7.10;98.20;;;;;;5008674;28;20465;-86
2022/04/19 02:21:00;;;;;;;0.30;0.20;;;7.10;99.00;;;;;;5007115;28;20531;-86
2022/04/19 02:23:28;;;;;;;0.30;0.10;;;7.10;98.70;;;;;;5010136;28;20457;-87
2022/04/19 02:25:55;;;;;;;0.67;0.67;;;7.10;98.80;;;;;;5004518;28;20936;-85
2022/04/19 02:28:23;;;;;;;0.30;0.20;;;7.00;98.60;;;;;;5007299;28;20451;-86
2022/04/19 02:30:52;;;;;;;0.30;0.20;;;6.90;99.10;;;;;;5006355;28;20512;-85
2022/04/19 02:33:19;;;;;;;0.50;0.30;;;6.80;99.90;;;;;;5009146;28;20451;-86
2022/04/19 02:35:46;;;;;;;0.33;0.20;;;6.90;99.90;;;;;;5008161;28;20462;-87
2022/04/19 02:38:13;;;;;;;0.30;0.20;;;6.90;99.90;;;;;;5005632;28;20510;-86
2022/04/19 02:40:40;;;;;;;0.30;0.20;;;7.10;99.90;;;;;;5005719;28;20443;-86
2022/04/19 02:43:07;;;;;;;0.30;0.20;;;7.10;99.90;;;;;;5005489;28;20466;-86
2022/04/19 02:45:34;;;;;;;0.30;0.20;;;7.00;99.90;;;;;;5004924;28;20523;-88
2022/04/19 02:48:05;;;;;;;0.30;0.10;;;7.00;99.90;;;;;;5009805;28;20438;-86
2022/04/19 02:50:33;;;;;;;0.30;0.20;;;6.90;99.90;;;;;;5007430;28;20482;-87
2022/04/19 02:53:02;;;;;;;0.30;0.10;;;6.90;99.90;;;;;;5007961;28;21203;-86
2022/04/19 02:55:29;;;;;;;0.40;0.20;;;6.80;99.90;;;;;;5005931;28;20890;-86
2022/04/19 02:57:56;;;;;;;0.30;0.10;;;6.70;99.90;;;;;;5009032;28;20528;-87
2022/04/19 03:00:24;;;;;;;0.40;0.20;;;6.80;99.90;;;;;;5003667;28;20474;-88
2022/04/19 03:02:51;;;;;;;0.30;0.20;;;6.70;99.90;;;;;;5007182;28;20458;-87
2022/04/19 03:05:20;;;;;;;0.30;0.20;;;6.80;99.90;;;;;;5003741;28;20890;-87
2022/04/19 03:07:48;;;;;;;0.30;0.10;;;6.80;99.90;;;;;;5009153;28;20837;-87
2022/04/19 03:10:16;;;;;;;0.30;0.20;;;6.80;99.90;;;;;;5003462;28;20489;-87
2022/04/19 03:12:44;;;;;;;0.30;0.17;;;6.80;99.90;;;;;;5008020;28;20461;-87
2022/04/19 03:15:11;;;;;;;0.40;0.33;;;6.80;99.90;;;;;;5007071;28;20524;-88
2022/04/19 03:17:39;;;;;;;0.40;0.20;;;6.80;99.90;;;;;;5007255;28;20566;-87
2022/04/19 03:20:08;;;;;;;0.30;0.10;;;6.70;99.90;;;;;;5005878;28;20450;-87
2022/04/19 03:28:07;;;;;;;0.30;0.10;;;6.50;99.90;;;;;;5004883;28;20509;-86
2022/04/19 03:30:34;;;;;;;0.30;0.20;;;6.50;99.90;;;;;;5005385;28;20477;-87
2022/04/19 03:33:01;;;;;;;0.30;0.10;;;6.50;99.90;;;;;;5007914;28;20465;-87
2022/04/19 03:35:28;;;;;;;0.30;0.10;;;6.40;99.90;;;;;;5002334;28;20519;-89
2022/04/19 03:37:57;;;;;;;0.30;0.20;;;6.50;99.90;;;;;;5005873;28;20465;-87
2022/04/19 03:40:24;;;;;;;0.97;0.67;;;6.60;99.90;;;;;;5003782;28;20705;-87
2022/04/19 03:42:55;;;;;;;0.30;0.10;;;6.70;99.90;;;;;;5003234;28;20822;-86
2022/04/19 03:45:22;;;;;;;4.47;0.73;;;6.50;99.90;;;;;;5006469;28;20853;-86
2022/04/19 03:47:49;;;;;;;0.30;0.20;;;6.50;99.90;;;;;;5005435;28;20516;-86
2022/04/19 03:50:16;;;;;;;0.30;0.10;;;6.50;99.90;;;;;;5006910;28;20481;-88
2022/04/19 03:52:44;;;;;;;0.30;0.10;;;6.40;99.90;;;;;;5005844;28;20510;-87
2022/04/19 03:55:12;;;;;;;1.17;0.70;;;6.40;99.90;;;;;;5005296;28;20949;-87
2022/04/19 03:57:39;;;;;;;0.30;0.10;;;6.50;99.90;;;;;;5003552;28;20861;-87
2022/04/19 04:00:07;;;;;;;2.60;0.30;;;6.40;99.90;;;;;;5003061;28;20466;-87
2022/04/19 04:02:34;;;;;;;0.30;0.20;;;6.30;99.90;;;;;;5005327;28;20469;-87
2022/04/19 04:05:05;;;;;;;0.30;0.10;;;6.30;99.90;;;;;;5003617;28;20937;-87
2022/04/19 04:07:33;;;;;;;0.40;0.20;;;6.20;99.90;;;;;;5009025;28;20455;-87
2022/04/19 04:10:00;;;;;;;0.30;0.10;;;6.30;99.90;;;;;;5006779;28;20489;-87
2022/04/19 04:12:28;;;;;;;0.83;0.40;;;6.20;99.90;;;;;;5006888;28;20466;-87
2022/04/19 04:14:55;;;;;;;0.30;0.10;;;6.10;99.90;;;;;;5006275;28;20953;-87
2022/04/19 04:17:22;;;;;;;0.30;0.13;;;6.10;99.90;;;;;;5003164;28;20519;-87
2022/04/19 04:19:49;;;;;;;0.30;0.20;;;6.20;99.90;;;;;;5004635;28;20447;-86
2022/04/19 04:22:16;;;;;;;0.30;0.20;;;6.20;99.90;;;;;;5004582;28;20992;-87
2022/04/19 04:24:43;;;;;;;0.30;0.10;;;6.20;99.90;;;;;;5005113;28;21047;-86
2022/04/19 04:27:10;;;;;;;0.30;0.20;;;6.30;99.90;;;;;;5005259;28;21006;-87
2022/04/19 04:29:38;;;;;;;0.30;0.20;;;6.30;99.90;;;;;;5005806;28;21011;-88
2022/04/19 04:32:06;;;;;;;0.30;0.20;;;6.30;99.90;;;;;;5004980;28;20456;-87
2022/04/19 04:34:34;;;;;;;0.30;0.20;;;6.30;99.90;;;;;;5007736;28;20956;-89
2022/04/19 04:37:01;;;;;;;0.30;0.20;;;6.10;99.90;;;;;;5007179;28;20513;-86
2022/04/19 04:39:28;;;;;;;0.30;0.20;;;6.20;99.90;;;;;;5004990;28;20539;-87
2022/04/19 04:41:55;;;;;;;0.30;0.20;;;6.30;99.90;;;;;;5004330;28;21038;-87
2022/04/19 04:44:22;;;;;;;0.30;0.10;;;6.10;99.90;;;;;;5005963;28;20947;-87
2022/04/19 04:49:37;;;;;;;0.30;0.20;;;6.00;99.90;;;;;;5006241;28;20488;-88
2022/04/19 04:52:04;;;;;;;0.30;0.20;;;6.10;99.90;;;;;;5006477;28;21060;-89
2022/04/19 04:54:31;;;;;;;0.30;0.20;;;6.20;99.90;;;;;;5002441;28;20897;-87
2022/04/19 04:56:58;;;;;;;0.40;0.33;;;6.20;99.90;;;;;;5007710;28;20789;-86
2022/04/19 04:59:26;;;;;;;0.50;0.50;;;6.20;99.90;;;;;;5008358;28;20536;-91
2022/04/19 05:01:54;;;;;;;0.40;0.30;;;6.20;99.90;;;;;;5007037;28;21728;-89
2022/04/19 05:04:22;;;;;;;0.40;0.40;;;6.10;99.90;;;;;;5000485;28;20505;-88
2022/04/19 05:06:49;;;;;;;0.30;0.10;;;6.00;99.90;;;;;;5007563;28;20941;-89
2022/04/19 05:09:16;;;;;;;0.30;0.20;;;6.00;99.90;;;;;;5002874;28;20551;-91
2022/04/19 05:11:46;;;;;;;0.30;0.27;;;6.00;99.90;;;;;;4991285;28;20508;-90
2022/04/19 05:14:13;;;;;;;0.63;0.30;;;6.10;99.90;;;;;;5000425;28;20493;-92
2022/04/19 05:16:41;;;;;;;0.30;0.10;;;6.20;99.90;;;;;;4993277;28;20477;-90
2022/04/19 05:19:11;;;;;;;0.30;0.20;;;6.30;99.90;;;;;;5008070;28;20462;-89
2022/04/19 05:21:38;;;;;;;0.30;0.10;;;6.30;99.90;;;;;;5021086;28;20496;-91
2022/04/19 05:24:06;;;;;;;1.83;1.70;;;6.40;99.90;;;;;;5022127;28;20461;-90
2022/04/19 05:26:33;;;;;;;0.77;0.77;;;6.40;99.90;;;;;;5011847;28;20490;-89
2022/04/19 05:29:01;;;;;;;0.50;0.50;;;6.30;99.90;;;;;;5013238;28;20471;-90
2022/04/19 05:31:28;;;;;;;0.30;0.10;;;6.20;99.90;;;;;;5007793;28;20508;-90
2022/04/19 05:33:55;;;;;;;0.30;0.20;;;6.10;99.90;;;;;;5012476;28;20485;-90
2022/04/19 05:36:23;;;;;;;0.30;0.20;;;6.10;99.90;;;;;;5009695;28;20881;-89
2022/04/19 05:38:52;;;;;;;0.30;0.10;;;6.00;99.90;;;;;;5010685;28;20464;-89
2022/04/19 05:41:20;;;;;;;0.40;0.10;;;6.00;99.90;;;;;;5004488;28;20480;-89
2022/04/19 05:43:47;;;;;;;0.30;0.10;;;5.90;99.90;;;;;;4997465;28;20820;-89
2022/04/19 05:46:16;;;;;;;0.57;0.57;;;5.90;99.90;;;;;;4997345;28;20551;-89
2022/04/19 05:48:43;;;;;;;0.30;0.10;;;6.00;99.90;;;;;;4995608;28;20855;-88
2022/04/19 05:51:10;;;;;;;0.40;0.40;;;6.10;99.90;;;;;;5006820;28;20484;-88
2022/04/19 05:53:38;;;;;;;0.30;0.20;;;6.10;99.90;;;;;;5009927;28;20477;-88
2022/04/19 05:56:06;;;;;;;0.40;0.30;;;6.20;99.90;;;;;;5010177;28;20650;-87
2022/04/19 05:58:33;;;;;;;0.30;0.10;;;6.30;99.90;;;;;;5001575;28;20470;-86
2022/04/19 06:01:01;;;;;;;0.50;0.30;;;6.40;99.90;;;;;;4996168;28;20517;-86
2022/04/19 06:06:14;;;;;;;0.30;0.10;;;6.30;99.90;;;;;;5008034;28;20468;-89
2022/04/19 06:08:42;;;;;;;0.30;0.10;;;6.30;99.90;;;;;;5006350;28;20468;-88
2022/04/19 06:11:12;;;;;;;0.40;0.30;;;6.30;99.90;;;;;;5002997;28;20586;-88
2022/04/19 06:13:39;;;;;;;1.07;0.20;;;6.40;99.90;;;;;;5007335;28;20869;-89
2022/04/19 06:16:06;;;;;;;0.40;0.23;;;6.50;99.90;;;;;;5006405;28;20528;-87
2022/04/19 06:18:34;;;;;;;0.30;0.27;;;6.50;99.90;;;;;;5009896;28;20480;-88
2022/04/19 06:21:01;;;;;;;0.30;0.20;;;6.50;99.90;;;;;;5008005;28;21035;-88
2022/04/19 06:23:28;;;;;;;0.30;0.10;;;6.50;99.90;;;;;;5001126;28;20467;-89
2022/04/19 06:25:56;;;;;;;0.30;0.10;;;6.40;99.90;;;;;;4994906;28;20461;-88
2022/04/19 06:28:23;;;;;;;0.83;0.50;;;6.50;99.90;;;;;;4997900;28;20580;-89
2022/04/19 06:30:50;;;;;;;0.30;0.20;;;6.30;99.90;;;;;;4998051;28;20474;-88
2022/04/19 06:33:17;;;;;;;0.40;0.20;;;6.40;99.90;;;;;;4993531;28;20457;-89
2022/04/19 06:35:45;;;;;;;0.30;0.20;;;6.40;99.90;;;;;;5008215;28;20939;-88
2022/04/19 06:38:12;;;;;;;0.30;0.20;;;6.50;99.90;;;;;;5011102;28;20461;-91
2022/04/19 06:40:39;;;;;;;1.00;0.60;;;6.30;99.90;;;;;;5003633;28;20507;-88
2022/04/19 06:43:07;;;;;;;0.30;0.20;;;6.50;99.90;;;;;;5000635;28;20467;-88
2022/04/19 06:45:34;;;;;;;0.30;0.20;;;6.60;99.90;;;;;;5007744;28;20465;-88
2022/04/19 06:48:03;;;;;;;0.30;0.10;;;6.40;99.90;;;;;;5005300;28;20860;-90
2022/04/19 06:50:30;;;;;;;0.30;0.20;;;6.20;99.90;;;;;;5003562;28;20500;-88
2022/04/19 06:52:57;;;;;;;0.33;0.17;;;6.20;99.90;;;;;;5009705;28;20461;-88
2022/04/19 06:55:24;;;;;;;0.30;0.20;;;6.30;99.90;;;;;;4996193;28;20474;-87
2022/04/19 06:57:52;;;;;;;0.30;0.10;;;6.30;99.90;;;;;;4998852;28;20516;-87
2022/04/19 07:00:21;;;;;;;0.30;0.20;;;6.50;99.90;;;;;;5008269;28;20467;-87
2022/04/19 07:02:48;;;;;;;0.30;0.20;;;6.70;99.90;;;;;;5008965;28;20469;-87
2022/04/19 07:05:17;;;;;;;0.30;0.10;;;6.60;99.90;;;;;;5010703;28;20871;-88
2022/04/19 07:07:44;;;;;;;0.30;0.10;;;6.60;99.90;;;;;;4998234;28;20464;-87
2022/04/19 07:10:12;;;;;;;0.47;0.43;;;6.60;99.90;;;;;;4999782;28;20542;-86
2022/04/19 07:12:40;;;;;;;2.00;1.33;;;6.80;99.90;;;;;;4999677;28;20476;-85
2022/04/19 07:15:08;;;;;;;1.10;0.43;;;6.80;99.90;;;;;;5001649;28;20558;-84
2022/04/19 07:17:40;;;;;;;0.30;0.10;;;6.80;99.90;;;;;;4998178;28;20557;-85
2022/04/19 07:28:21;;;;;;;0.30;0.17;;;7.00;99.90;;;;;;4973978;28;20474;-85
2022/04/19 07:30:48;;;;;;;0.43;0.27;;;7.30;99.90;;;;;;5004964;28;20482;-87
2022/04/19 07:33:17;;;;;;;0.30;0.20;;;7.40;99.90;;;;;;5007615;28;20512;-86
2022/04/19 07:35:44;;;;;;;1.03;1.03;;;7.50;99.90;;;;;;4998330;28;20465;-85
2022/04/19 07:38:14;;;;;;;0.30;0.20;;;7.80;99.90;;;;;;5000869;28;20533;-84
2022/04/19 07:40:41;;;;;;;0.30;0.20;;;8.00;99.90;;;;;;4998537;28;20469;-85
2022/04/19 07:43:08;;;;;;;0.40;0.40;;;7.90;99.90;;;;;;4995447;28;20545;-86
2022/04/19 07:45:36;;;;;;;0.30;0.20;;;8.10;99.90;;;;;;4996783;28;20475;-85
2022/04/19 07:48:04;;;;;;;0.30;0.20;;;8.20;99.90;;;;;;5002500;28;20498;-84
2022/04/19 07:50:33;;;;;;;0.30;0.10;;;8.50;99.90;;;;;;5002935;28;20573;-84
2022/04/19 07:53:00;;;;;;;0.30;0.20;;;8.60;99.90;;;;;;5008139;28;20451;-85
2022/04/19 07:55:27;;;;;;;0.30;0.20;;;8.50;99.90;;;;;;4991040;28;20468;-85
2022/04/19 07:57:54;;;;;;;0.30;0.20;;;8.20;99.90;;;;;;5008732;28;20455;-85
2022/04/19 08:00:27;;;;;;;0.40;0.23;;;7.90;99.90;;;;;;4997208;28;20613;-86
2022/04/19 08:02:54;;;;;;;0.30;0.10;;;8.00;99.90;;;;;;4998866;28;20475;-85
2022/04/19 08:05:21;;;;;;;0.30;0.10;;;8.00;99.90;;;;;;4990172;28;20514;-88
2022/04/19 08:07:50;;;;;;;0.30;0.20;;;8.10;99.90;;;;;;5008938;28;20463;-84
2022/04/19 08:10:18;;;;;;;0.43;0.43;;;8.20;99.90;;;;;;5007614;28;20486;-89
2022/04/19 08:12:45;;;;;;;0.30;0.20;;;8.60;99.90;;;;;;5006552;28;20458;-86
2022/04/19 08:15:13;;;;;;;0.30;0.20;;;8.60;99.90;;;;;;5005068;28;20894;-86
2022/04/19 08:17:40;;;;;;;0.60;0.40;;;9.10;99.90;;;;;;4999422;28;20478;-86
2022/04/19 08:20:08;;;;;;;0.30;0.20;;;9.10;99.90;;;;;;5008877;28;20458;-86
2022/04/19 08:22:36;;;;;;;0.30;0.20;;;8.60;99.90;;;;;;5007934;28;20857;-85
2022/04/19 08:25:06;;;;;;;1.07;0.50;;;8.70;99.90;;;;;;5007143;28;20454;-85
2022/04/19 08:27:33;;;;;;;0.30;0.20;;;8.80;99.90;;;;;;5008945;28;20473;-87
2022/04/19 08:30:02;;;;;;;0.30;0.10;;;8.60;99.90;;;;;;5008525;28;20472;-85
2022/04/19 08:32:29;;;;;;;1.03;0.30;;;8.50;99.90;;;;;;5008806;28;20447;-87
2022/04/19 08:34:56;;;;;;;0.50;0.47;;;8.80;99.90;;;;;;5006181;28;20520;-87
2022/04/19 08:37:23;;;;;;;0.30;0.20;;;8.80;99.90;;;;;;5014964;28;20446;-84
2022/04/19 08:39:50;;;;;;;0.60;0.30;;;8.80;99.90;;;;;;5010707;28;20446;-85
2022/04/19 08:42:19;;;;;;;0.30;0.20;;;8.60;99.90;;;;;;5028541;28;20466;-90
2022/04/19 08:44:46;;;;;;;0.30;0.20;;;8.30;99.90;;;;;;5009592;28;20467;-84
2022/04/19 08:47:15;;;;;;;0.30;0.20;;;8.40;99.90;;;;;;5008906;28;20514;-87
2022/04/19 08:49:44;;;;;;;0.30;0.20;;;8.10;99.90;;;;;;5013643;28;20504;-84
2022/04/19 08:52:11;;;;;;;0.30;0.20;;;8.10;99.90;;;;;;5007629;28;20505;-85
2022/04/19 08:57:30;;;;;;;0.40;0.20;;;7.70;99.90;;;;;;5006986;28;20482;-85
2022/04/19 08:59:58;;;;;;;0.73;0.73;;;7.60;99.90;;;;;;5007686;28;20462;-86
2022/04/19 09:02:26;;;;;;;1.50;1.50;;;7.50;99.90;;;;;;5007879;28;20513;-85
2022/04/19 09:04:54;;;;;;;1.13;0.50;;;7.40;99.90;;;;;;5006995;28;20788;-86
2022/04/19 09:07:35;;;;;;;0.30;0.10;;;7.30;99.90;;;;;;5007616;28;20511;-86
2022/04/19 09:10:03;;;;;;;0.30;0.10;;;7.20;99.90;;;;;;5008173;28;20943;-87
2022/04/19 09:12:32;;;;;;;0.40;0.30;;;7.10;99.90;;;;;;5007037;28;20497;-85
2022/04/19 09:15:03;;;;;;;0.30;0.20;;;7.10;99.90;;;;;;5008267;28;20838;-86
2022/04/19 09:17:32;;;;;;;0.30;0.20;;;7.10;99.90;;;;;;5003598;28;21022;-87
2022/04/19 09:20:15;;;;;;;0.30;0.10;;;7.00;99.90;;;;;;5007452;28;20434;-84
2022/04/19 09:22:43;;;;;;;0.50;0.50;;;6.90;99.90;;;;;;5008448;28;20453;-86
2022/04/19 09:25:24;;;;;;;0.53;0.53;;;7.00;99.90;;;;;;4998948;28;20544;-85
2022/04/19 09:27:54;;;;;;;0.30;0.10;;;7.00;99.90;;;;;;4988092;28;20524;-85
2022/04/19 09:30:23;;;;;;;0.30;0.20;;;7.00;99.90;;;;;;5004009;28;20453;-84
2022/04/19 09:33:05;;;;;;;0.33;0.27;;;7.10;99.90;;;;;;5001274;28;20454;-85
2022/04/19 09:35:33;;;;;;;0.97;0.97;;;7.10;99.90;;;;;;5006193;28;20470;-86
2022/04/19 09:38:00;;;;;;;0.30;0.20;;;7.10;99.90;;;;;;5007767;28;20441;-86
2022/04/19 09:40:36;;;;;;;0.30;0.20;;;7.10;99.90;;;;;;4996642;28;20471;-87
2022/04/19 09:43:12;;;;;;;0.30;0.10;;;7.10;99.90;;;;;;5004503;28;20972;-83
2022/04/19 09:45:54;;;;;;;0.30;0.20;;;7.20;99.90;;;;;;5003895;28;20537;-90
2022/04/19 09:48:23;;;;;;;0.43;0.40;;;7.30;99.90;;;;;;5007655;28;20553;-88
2022/04/19 09:50:59;;;;;;;0.30;0.10;;;7.30;99.90;;;;;;5009148;28;20526;-89
2022/04/19 09:53:28;;;;;;;0.30;0.20;;;7.30;99.90;;;;;;5002413;28;20462;-86
2022/04/19 09:55:56;;;;;;;0.30;0.10;;;7.20;99.90;;;;;;5005283;28;20450;-87
2022/04/19 09:58:26;;;;;;;0.30;0.10;;;7.20;99.90;;;;;;5007918;28;20451;-87
2022/04/19 10:00:53;;;;;;;0.30;0.20;;;7.20;99.90;;;;;;4990319;28;20467;-87
2022/04/19 10:08:53;;;;;;;0.30;0.20;;;7.20;99.90;;;;;;4970399;28;20426;-86
2022/04/19 10:11:21;;;;;;;0.50;0.50;;;7.30;99.90;;;;;;5003549;28;20489;-87
2022/04/19 10:13:51;;;;;;;0.30;0.20;;;7.40;99.90;;;;;;4995023;28;20527;-87
2022/04/19 10:16:18;;;;;;;0.40;0.30;;;7.60;99.90;;;;;;5011011;28;20468;-86
2022/04/19 10:18:46;;;;;;;0.30;0.10;;;7.60;99.90;;;;;;5011090;28;20449;-88
2022/04/19 10:21:17;;;;;;;0.73;0.40;;;7.70;99.90;;;;;;5009775;28;20479;-89
2022/04/19 10:23:46;;;;;;;0.40;0.30;;;7.70;99.90;;;;;;4995407;28;20510;-88
2022/04/19 10:26:18;;;;;;;0.30;0.10;;;7.70;99.90;;;;;;5006916;28;20454;-86
2022/04/19 10:28:46;;;;;;;1.23;1.23;;;7.60;99.90;;;;;;5005146;28;20786;-87
2022/04/19 10:31:24;;;;;;;0.30;0.20;;;7.60;99.90;;;;;;5010041;28;20544;-87
2022/04/19 10:33:52;;;;;;;0.30;0.10;;;7.40;99.90;;;;;;5010600;28;20456;-86
2022/04/19 10:36:22;;;;;;;0.30;0.20;;;7.40;99.90;;;;;;5005623;28;20461;-87
2022/04/19 10:39:22;;;;;;;0.30;0.20;;;7.30;99.90;;;;;;5007069;28;20451;-87
2022/04/19 10:42:00;;;;;;;0.30;0.20;;;7.20;99.90;;;;;;5008969;28;20463;-85
2022/04/19 10:44:36;;;;;;;0.30;0.20;;;7.20;99.90;;;;;;5008574;28;20463;-84
2022/04/19 10:47:13;;;;;;;0.30;0.20;;;7.20;99.90;;;;;;5008309;28;20462;-86
2022/04/19 10:49:59;;;;;;;0.60;0.60;;;7.30;99.90;;;;;;5009771;28;20445;-85
2022/04/19 10:52:45;;;;;;;1.17;1.07;;;7.60;99.90;;;;;;5004593;28;20490;-86
2022/04/19 10:55:18;;;;;;;0.30;0.20;;;7.80;99.90;;;;;;5008980;28;20504;-87
2022/04/19 11:00:31;;;;;;;0.30;0.20;;;8.10;99.90;;;;;;5000896;28;21008;-88
2022/04/19 11:03:01;;;;;;;0.30;0.20;;;8.30;99.90;;;;;;5005297;28;20470;-85
2022/04/19 11:05:43;;;;;;;1.50;1.50;;;8.50;99.90;;;;;;5010273;28;20463;-85
2022/04/19 11:08:33;;;;;;;0.30;0.20;;;8.70;99.90;;;;;;4989756;28;20436;-88
2022/04/19 11:11:23;;;;;;;0.30;0.20;;;8.40;99.90;;;;;;5001338;28;20457;-85
2022/04/19 11:14:18;;;;;;;0.30;0.20;;;8.20;99.90;;;;;;5007715;28;20447;-85
2022/04/19 11:16:45;;;;;;;0.30;0.20;;;8.10;99.90;;;;;;4995830;28;20477;-88
2022/04/19 11:19:22;;;;;;;0.30;0.10;;;7.80;99.90;;;;;;5009139;28;20439;-85
2022/04/19 11:21:58;;;;;;;1.07;0.33;;;7.60;99.90;;;;;;4994344;28;20481;-85
2022/04/19 11:25:00;;;;;;;0.30;0.20;;;7.20;99.90;;;;;;5008903;28;21018;-84
2022/04/19 11:28:00;;;;;;;0.30;0.20;;;7.00;99.90;;;;;;5007983;28;20461;-87
2022/04/19 11:30:27;;;;;;;0.30;0.20;;;6.90;99.90;;;;;;5006929;28;20445;-85
2022/04/19 11:32:56;;;;;;;0.30;0.20;;;6.90;99.90;;;;;;5005263;28;20488;-85
2022/04/19 11:35:26;;;;;;;0.30;0.10;;;6.90;99.90;;;;;;5008941;28;21000;-86
2022/04/19 11:37:53;;;;;;;0.43;0.37;;;6.90;99.90;;;;;;5008419;28;20453;-86
2022/04/19 11:48:44;;;;;;;0.40;0.20;;;7.10;99.90;;;;;;5001499;28;20501;-86
2022/04/19 11:51:14;;;;;;;0.30;0.30;;;7.10;99.90;;;;;;5007251;28;20437;-88
2022/04/19 11:53:41;;;;;;;0.30;0.20;;;7.20;99.90;;;;;;5001872;28;20836;-85
2022/04/19 11:56:10;;;;;;;0.90;0.70;;;7.30;99.90;;;;;;5004733;28;20561;-86
2022/04/19 11:58:38;;;;;;;0.40;0.40;;;7.50;99.90;;;;;;5003014;28;21167;-86
2022/04/19 12:01:07;;;;;;;0.70;0.63;;;7.70;99.90;;;;;;4998400;28;21001;-88
2022/04/19 12:03:36;;;;;;;0.30;0.20;;;7.80;99.90;;;;;;5000043;28;20576;-86
2022/04/19 12:06:08;;;;;;;1.80;1.70;;;8.00;99.90;;;;;;5022223;28;20462;-86
2022/04/19 12:08:38;;;;;;;0.30;0.20;;;8.30;99.90;;;;;;5022097;28;20472;-85
2022/04/19 12:11:07;;;;;;;0.30;0.20;;;8.40;99.90;;;;;;5011212;28;20458;-86
2022/04/19 12:13:35;;;;;;;0.50;0.47;;;8.70;99.90;;;;;;5012678;28;20505;-85
2022/04/19 12:16:03;;;;;;;0.30;0.20;;;8.90;99.90;;;;;;5006774;28;20969;-86
2022/04/19 12:18:35;;;;;;;0.30;0.23;;;9.20;99.90;;;;;;5000157;28;20880;-88
2022/04/19 12:21:03;;;;;;;0.40;0.37;;;9.20;99.90;;;;;;4998637;28;20494;-87
2022/04/19 12:23:31;;;;;;;0.30;0.20;;;9.00;99.90;;;;;;5006593;28;20545;-86
2022/04/19 12:26:01;;;;;;;1.27;0.30;;;8.60;99.90;;;;;;5008357;28;20446;-88
2022/04/19 12:28:45;;;;;;;0.57;0.40;;;8.40;99.90;;;;;;5005660;28;20522;-87
2022/04/19 12:31:30;;;;;;;0.40;0.30;;;8.40;99.90;;;;;;5011727;28;20536;-87
2022/04/19 12:33:58;;;;;;;0.30;0.10;;;8.30;99.90;;;;;;4997491;28;20465;-86
2022/04/19 12:36:25;;;;;;;0.30;0.20;;;8.20;99.90;;;;;;5006868;28;20458;-87
2022/04/19 12:39:00;;;;;;;0.70;0.40;;;8.10;99.90;;;;;;4995940;28;20784;-86
2022/04/19 12:41:40;;;;;;;0.30;0.10;;;8.10;99.90;;;;;;4998622;28;20470;-86
2022/04/19 12:44:11;;;;;;;0.40;0.33;;;7.90;99.90;;;;;;5003221;28;20514;-89
2022/04/19 12:46:43;;;;;;;0.30;0.10;;;7.70;99.90;;;;;;5001981;28;20477;-90
2022/04/19 12:49:24;;;;;;;0.30;0.10;;;7.50;99.90;;;;;;5001649;28;20533;-90
2022/04/19 12:52:02;;;;;;;0.40;0.30;;;7.50;99.90;;;;;;5005850;28;20485;-88
2022/04/19 12:54:30;;;;;;;0.30;0.20;;;7.30;99.90;;;;;;5006212;28;20470;-90
2022/04/19 12:57:03;;;;;;;0.40;0.30;;;7.20;99.90;;;;;;5002591;28;20505;-90
2022/04/19 12:59:31;;;;;;;0.57;0.53;;;7.00;99.90;;;;;;5001462;28;20944;-89
2022/04/19 13:01:59;;;;;;;0.30;0.10;;;6.90;99.90;;;;;;5003450;28;20469;-87
2022/04/19 13:04:27;;;;;;;0.30;0.10;;;6.90;99.90;;;;;;5002174;28;20920;-89
2022/04/19 13:12:26;;;;;;;0.67;0.67;;;6.70;99.90;;;;;;4998688;28;20513;-88
2022/04/19 13:14:55;;;;;;;0.30;0.10;;;6.60;99.90;;;;;;4999631;28;20475;-89
2022/04/19 13:17:23;;;;;;;0.40;0.30;;;6.70;99.90;;;;;;4995530;28;20472;-89
2022/04/19 13:19:51;;;;;;;0.30;0.20;;;6.60;99.90;;;;;;4996620;28;20853;-90
2022/04/19 13:22:18;;;;;;;0.30;0.20;;;6.60;99.90;;;;;;4996072;28;20548;-88
2022/04/19 13:24:45;;;;;;;0.30;0.23;;;6.50;99.90;;;;;;5005657;28;20452;-89
2022/04/19 13:27:13;;;;;;;0.40;0.40;;;6.40;99.90;;;;;;5003563;28;21013;-88
2022/04/19 13:29:43;;;;;;;0.30;0.10;;;6.40;99.90;;;;;;5008522;28;20459;-90
2022/04/19 13:32:11;;;;;;;0.30;0.20;;;6.30;99.90;;;;;;4999202;28;20575;-89
2022/04/19 13:34:39;;;;;;;0.30;0.10;;;6.20;99.90;;;;;;5003636;28;20585;-89
2022/04/19 13:37:07;;;;;;;0.30;0.13;;;6.10;99.90;;;;;;5001694;28;20458;-89
2022/04/19 13:39:34;;;;;;;0.30;0.10;;;6.10;99.90;;;;;;5007191;28;20474;-88
2022/04/19 13:42:01;;;;;;;0.30;0.10;;;6.10;99.90;;;;;;5007130;28;20944;-88
2022/04/19 13:44:28;;;;;;;0.30;0.13;;;6.00;99.90;;;;;;5006391;28;20459;-87
2022/04/19 13:46:59;;;;;;;0.30;0.10;;;6.00;99.90;;;;;;5010593;28;20459;-86
2022/04/19 13:49:28;;;;;;;0.57;0.37;;;6.00;99.90;;;;;;5011596;28;20486;-88
2022/04/19 13:51:58;;;;;;;0.30;0.20;;;6.00;99.90;;;;;;5005511;28;20515;-86
2022/04/19 13:54:25;;;;;;;0.30;0.10;;;5.40;99.90;;;;;;5002935;28;20844;-86